Time;durP1;ratioP1;P1;durP2;ratioP2;P2;SDS_P1;SDS_P2;PMS_P1;PMS_P2;Temp;Humidity;BMP_temperature;BMP_pressure;BME280_temperature;BME280_humidity;BME280_pressure;Samples;Min_cycle;Max_cycle;Signal;HPM_P1;HPM_P2
2023/01/30 00:01:00;540705.00;1.80;931.94;0.00;0.00;0.62;;;;;3.60;1.00;;;;;;2570874;55;1133;-84
2023/01/30 00:03:29;409251.00;1.36;705.71;0.00;0.00;0.62;;;;;3.50;1.00;;;;;;2573094;55;1897;-85
2023/01/30 00:05:56;758057.00;2.53;1308.07;0.00;0.00;0.62;;;;;3.50;1.00;;;;;;2570877;55;1112;-85
2023/01/30 00:08:23;467570.00;1.56;806.01;0.00;0.00;0.62;;;;;3.40;1.00;;;;;;2570569;55;1097;-84
2023/01/30 00:10:50;456392.00;1.52;786.78;0.00;0.00;0.62;;;;;3.50;1.00;;;;;;2572847;55;957;-84
2023/01/30 00:13:17;557631.00;1.86;961.12;0.00;0.00;0.62;;;;;3.30;1.00;;;;;;2570545;55;1362;-86
2023/01/30 00:15:44;455757.00;1.52;785.69;0.00;0.00;0.62;;;;;3.30;1.00;;;;;;2573040;55;935;-85
2023/01/30 00:18:11;659417.00;2.20;1136.93;0.00;0.00;0.62;;;;;3.30;1.00;;;;;;2573079;55;922;-85
2023/01/30 00:20:40;647981.00;2.16;1117.14;0.00;0.00;0.62;;;;;3.40;1.00;;;;;;2573140;55;917;-85
2023/01/30 00:23:07;721129.00;2.40;1243.90;0.00;0.00;0.62;;;;;3.10;1.00;;;;;;2570762;55;1247;-85
2023/01/30 00:25:34;695576.00;2.32;1199.57;0.00;0.00;0.62;;;;;3.20;1.00;;;;;;2570891;55;1899;-86
2023/01/30 00:28:01;604552.00;2.02;1042.08;0.00;0.00;0.62;;;;;3.30;1.00;;;;;;2573127;55;1018;-86
2023/01/30 00:30:28;600565.00;2.00;1035.20;0.00;0.00;0.62;;;;;3.10;1.00;;;;;;2572988;55;1102;-85
2023/01/30 00:32:56;117776368.00;392.59;66176948.00;0.00;0.00;0.62;;;;;3.10;1.00;;;;;;2570843;55;1356;-85
2023/01/30 00:35:27;559109.00;1.86;963.66;0.00;0.00;0.62;;;;;3.00;1.00;;;;;;2572942;55;949;-85
2023/01/30 00:37:57;449461.00;1.50;774.86;0.00;0.00;0.62;;;;;3.00;1.00;;;;;;2573069;55;1117;-86
2023/01/30 00:40:24;463991.00;1.55;799.85;0.00;0.00;0.62;;;;;3.00;1.00;;;;;;2573041;55;984;-86
2023/01/30 00:48:58;705665.00;2.35;1217.06;0.00;0.00;0.62;;;;;3.00;1.00;;;;;;2573059;55;679;-85
2023/01/30 00:51:25;568303.00;1.89;979.52;10292.00;0.03;18.46;;;;;2.90;1.00;;;;;;2570854;55;1148;-85
2023/01/30 00:53:53;351379.00;1.17;606.23;0.00;0.00;0.62;;;;;3.10;1.00;;;;;;2570937;55;1372;-87
2023/01/30 00:56:20;616811.00;2.06;1063.26;0.00;0.00;0.62;;;;;2.80;1.00;;;;;;2570913;55;1136;-86
2023/01/30 00:58:47;417057.00;1.39;719.13;0.00;0.00;0.62;;;;;2.60;1.00;;;;;;2570862;55;1620;-86
2023/01/30 01:01:14;432616.00;1.44;745.88;0.00;0.00;0.62;;;;;2.90;1.00;;;;;;2570930;55;1102;-87
2023/01/30 01:03:41;540907.00;1.80;932.29;0.00;0.00;0.62;;;;;2.90;1.00;;;;;;2573073;55;1313;-86
2023/01/30 01:06:09;549893.00;1.83;947.77;0.00;0.00;0.62;;;;;2.70;1.00;;;;;;2570919;55;1954;-87
2023/01/30 01:08:36;506477.00;1.69;872.98;0.00;0.00;0.62;;;;;2.70;1.00;;;;;;2573013;55;980;-86
2023/01/30 01:11:04;532584.00;1.78;917.94;0.00;0.00;0.62;;;;;2.80;1.00;;;;;;2573023;55;1523;-87
2023/01/30 01:13:32;337263.00;1.12;581.97;0.00;0.00;0.62;;;;;3.00;1.00;;;;;;2570887;55;1247;-85
2023/01/30 01:15:59;258850.00;0.86;447.17;0.00;0.00;0.62;;;;;3.00;1.00;;;;;;2573034;55;1552;-87
2023/01/30 01:18:26;540319.00;1.80;931.27;0.00;0.00;0.62;;;;;2.90;1.00;;;;;;2570923;55;1030;-86
2023/01/30 01:20:53;556392.00;1.85;958.98;0.00;0.00;0.62;;;;;2.90;1.00;;;;;;2570849;55;1093;-86
2023/01/30 01:23:20;444393.00;1.48;766.14;0.00;0.00;0.62;;;;;3.00;1.00;;;;;;2572939;55;1349;-86
2023/01/30 01:25:47;499485.00;1.66;860.94;0.00;0.00;0.62;;;;;2.90;1.00;;;;;;2570677;55;1948;-85
2023/01/30 01:28:20;396989.00;1.32;684.63;0.00;0.00;0.62;;;;;3.00;1.00;;;;;;2573037;55;1722;-86
2023/01/30 01:30:47;460815.00;1.54;794.39;0.00;0.00;0.62;;;;;2.90;1.00;;;;;;2570972;55;1003;-86
2023/01/30 01:33:14;401198.00;1.34;691.86;0.00;0.00;0.62;;;;;2.90;1.00;;;;;;2572987;55;1612;-86
2023/01/30 01:35:41;531443.00;1.77;915.98;0.00;0.00;0.62;;;;;2.80;1.00;;;;;;2570941;55;1098;-88
2023/01/30 01:38:08;515566.00;1.72;888.63;0.00;0.00;0.62;;;;;2.70;1.00;;;;;;2573032;55;968;-85
2023/01/30 01:43:23;670069.00;2.23;1155.37;0.00;0.00;0.62;;;;;2.80;1.00;;;;;;2573033;55;1422;-86
2023/01/30 01:45:57;751852.00;2.51;1297.28;0.00;0.00;0.62;;;;;2.60;1.00;;;;;;2570819;55;1938;-86
2023/01/30 01:55:08;622450.00;2.07;1073.00;0.00;0.00;0.62;;;;;2.20;1.00;;;;;;2573036;55;1337;-86
2023/01/30 01:57:39;347868.00;1.16;600.20;0.00;0.00;0.62;;;;;2.20;1.00;;;;;;2570887;55;1123;-86
2023/01/30 02:00:13;496346.00;1.65;855.53;0.00;0.00;0.62;;;;;1.80;1.00;;;;;;2570558;55;1557;-88
2023/01/30 02:02:43;684338.00;2.28;1180.09;0.00;0.00;0.62;;;;;1.60;1.00;;;;;;2570870;55;1060;-86
2023/01/30 02:05:12;486663.00;1.62;838.87;0.00;0.00;0.62;;;;;1.80;1.00;;;;;;2570748;55;1956;-86
2023/01/30 02:07:45;633866.00;2.11;1092.73;0.00;0.00;0.62;;;;;2.20;1.00;;;;;;2570841;55;1106;-86
2023/01/30 02:10:18;448290.00;1.49;772.84;0.00;0.00;0.62;;;;;2.60;1.00;;;;;;2570748;55;1070;-85
2023/01/30 02:12:46;365626.00;1.22;630.72;0.00;0.00;0.62;;;;;2.90;1.00;;;;;;2573025;55;996;-86
2023/01/30 02:15:16;518701.00;1.73;894.03;0.00;0.00;0.62;;;;;3.00;1.00;;;;;;2570780;55;1058;-86
2023/01/30 02:17:43;503483.00;1.68;867.82;0.00;0.00;0.62;;;;;3.00;1.00;;;;;;2572856;55;1499;-86
2023/01/30 02:20:21;450205.00;1.50;776.14;0.00;0.00;0.62;;;;;3.00;1.00;;;;;;2570951;55;1016;-86
2023/01/30 02:23:37;381495.00;1.27;658.00;0.00;0.00;0.62;;;;;3.00;1.00;;;;;;2572935;55;1778;-86
2023/01/30 02:26:38;628390.00;2.09;1083.27;0.00;0.00;0.62;;;;;2.90;1.00;;;;;;2573011;55;1966;-85
2023/01/30 02:29:40;403754.00;1.35;696.26;0.00;0.00;0.62;;;;;3.10;1.00;;;;;;2570646;55;993;-86
2023/01/30 02:32:19;549995.00;1.83;947.95;0.00;0.00;0.62;;;;;3.20;1.00;;;;;;2572994;55;1673;-85
2023/01/30 02:34:57;503366.00;1.68;867.62;0.00;0.00;0.62;;;;;2.80;1.00;;;;;;2572960;55;1594;-86
2023/01/30 02:37:37;591377.00;1.97;1019.33;4264.00;0.01;8.01;;;;;2.80;1.00;;;;;;2570917;55;1065;-85
2023/01/30 02:40:18;438451.00;1.46;755.92;0.00;0.00;0.62;;;;;2.80;1.00;;;;;;2570873;55;1176;-85
2023/01/30 02:42:52;616789.00;2.06;1063.22;0.00;0.00;0.62;;;;;2.90;1.00;;;;;;2570899;55;1095;-85
2023/01/30 02:45:30;500743.00;1.67;863.10;0.00;0.00;0.62;;;;;3.00;1.00;;;;;;2573027;55;1939;-86
2023/01/30 02:48:03;387838.00;1.29;668.90;0.00;0.00;0.62;;;;;3.10;1.00;;;;;;2570955;55;1026;-85
2023/01/30 02:50:35;613253.00;2.04;1057.11;0.00;0.00;0.62;;;;;3.20;1.00;;;;;;2572960;55;980;-85
2023/01/30 02:53:04;507016.00;1.69;873.90;0.00;0.00;0.62;;;;;2.90;1.00;;;;;;2573009;55;1335;-86
2023/01/30 02:55:31;536246.00;1.79;924.25;0.00;0.00;0.62;;;;;2.90;1.00;;;;;;2570841;55;1097;-85
2023/01/30 02:57:58;402651.00;1.34;694.36;0.00;0.00;0.62;;;;;2.90;1.00;;;;;;2572997;55;1679;-85
2023/01/30 03:00:48;443939.00;1.48;765.36;0.00;0.00;0.62;;;;;2.90;1.00;;;;;;2573005;55;1001;-85
2023/01/30 03:03:35;568896.00;1.90;980.54;0.00;0.00;0.62;;;;;2.80;1.00;;;;;;2570757;55;1356;-86
2023/01/30 03:06:37;621870.00;2.07;1072.00;0.00;0.00;0.62;;;;;3.00;1.00;;;;;;2570754;55;1898;-86
2023/01/30 03:09:16;550908.00;1.84;949.52;0.00;0.00;0.62;;;;;2.80;1.00;;;;;;2570779;55;1052;-87
2023/01/30 03:11:48;520479.00;1.73;897.09;0.00;0.00;0.62;;;;;2.80;1.00;;;;;;2570760;55;1094;-86
2023/01/30 03:14:23;538060.00;1.79;927.38;0.00;0.00;0.62;;;;;2.50;1.00;;;;;;2570682;55;1389;-86
2023/01/30 03:16:55;606946.00;2.02;1046.21;0.00;0.00;0.62;;;;;2.60;1.00;;;;;;2570776;55;1064;-85
2023/01/30 03:19:23;460090.00;1.53;793.14;0.00;0.00;0.62;;;;;2.70;1.00;;;;;;2569063;40;3657;-86
2023/01/30 03:21:50;436966.00;1.46;753.36;0.00;0.00;0.62;;;;;2.70;1.00;;;;;;2570721;55;1098;-87
2023/01/30 03:24:18;442188.00;1.47;762.35;0.00;0.00;0.62;;;;;2.70;1.00;;;;;;2572819;55;1530;-84
2023/01/30 03:26:55;467273.00;1.56;805.50;0.00;0.00;0.62;;;;;2.70;1.00;;;;;;2572867;55;1905;-86
2023/01/30 03:29:28;451133.00;1.50;777.73;0.00;0.00;0.62;;;;;2.20;1.00;;;;;;2570752;55;1128;-86
2023/01/30 03:31:55;567062.00;1.89;977.38;0.00;0.00;0.62;;;;;2.00;1.00;;;;;;2570578;55;1019;-86
2023/01/30 03:34:23;459642.00;1.53;792.37;0.00;0.00;0.62;;;;;2.10;1.00;;;;;;2570843;55;1294;-86
2023/01/30 03:36:51;577401.00;1.92;995.21;0.00;0.00;0.62;;;;;2.30;1.00;;;;;;2570654;55;1128;-86
2023/01/30 03:39:18;551126.00;1.84;949.90;0.00;0.00;0.62;;;;;2.30;1.00;;;;;;2572976;55;992;-86
2023/01/30 03:41:45;657012.00;2.19;1132.77;0.00;0.00;0.62;;;;;2.70;1.00;;;;;;2570744;55;1076;-85
2023/01/30 03:44:12;679508.00;2.27;1171.72;0.00;0.00;0.62;;;;;2.60;1.00;;;;;;2570694;55;1469;-86
2023/01/30 03:46:38;675582.00;2.25;1164.92;0.00;0.00;0.62;;;;;2.30;1.00;;;;;;2570734;55;1952;-86
2023/01/30 03:49:05;678124.00;2.26;1169.32;29066.00;0.10;50.97;;;;;2.30;1.00;;;;;;2570685;55;1086;-85
2023/01/30 03:51:34;517379.00;1.72;891.75;0.00;0.00;0.62;;;;;2.40;1.00;;;;;;2570920;55;1063;-85
2023/01/30 03:54:01;500807.00;1.67;863.21;0.00;0.00;0.62;;;;;2.00;1.00;;;;;;2570923;55;1308;-87
2023/01/30 03:56:27;605315.00;2.02;1043.40;0.00;0.00;0.62;;;;;1.80;1.00;;;;;;2570932;55;1007;-87
2023/01/30 03:58:54;396708.00;1.32;684.15;0.00;0.00;0.62;;;;;2.30;1.00;;;;;;2570934;55;1010;-86
2023/01/30 04:01:21;535656.00;1.79;923.24;0.00;0.00;0.62;;;;;2.50;1.00;;;;;;2570893;55;1047;-85
2023/01/30 04:03:48;530482.00;1.77;914.32;0.00;0.00;0.62;;;;;2.50;1.00;;;;;;2576892;40;3555;-83
2023/01/30 04:06:15;605018.00;2.02;1042.89;0.00;0.00;0.62;;;;;2.80;1.00;;;;;;2570870;55;1930;-85
2023/01/30 04:08:44;377399.00;1.26;650.95;0.00;0.00;0.62;;;;;2.80;1.00;;;;;;2571015;55;1228;-86
2023/01/30 04:11:11;336164.00;1.12;580.08;0.00;0.00;0.62;;;;;2.80;1.00;;;;;;2573326;55;904;-86
2023/01/30 04:13:37;518086.00;1.73;892.97;0.00;0.00;0.62;;;;;3.10;1.00;;;;;;2570926;55;1331;-85
2023/01/30 04:16:16;566873.00;1.89;977.05;0.00;0.00;0.62;;;;;3.20;1.00;;;;;;2570558;55;1181;-86
2023/01/30 04:18:43;513625.00;1.71;885.29;0.00;0.00;0.62;;;;;3.10;1.00;;;;;;2570929;55;1062;-86
2023/01/30 04:21:10;585728.00;1.95;1009.58;0.00;0.00;0.62;;;;;3.20;1.00;;;;;;2573047;55;1665;-87
2023/01/30 04:23:37;541826.00;1.81;933.87;0.00;0.00;0.62;;;;;2.80;1.00;;;;;;2571015;55;1330;-87
2023/01/30 04:26:07;704980.00;2.35;1215.88;0.00;0.00;0.62;;;;;2.80;1.00;;;;;;2570894;55;1895;-85
2023/01/30 04:28:35;540027.00;1.80;930.77;0.00;0.00;0.62;;;;;2.90;1.00;;;;;;2562357;55;3700;-86
2023/01/30 04:31:02;542887.00;1.81;935.70;0.00;0.00;0.62;;;;;3.00;1.00;;;;;;2569202;40;3626;-86
2023/01/30 04:33:29;677698.00;2.26;1168.59;0.00;0.00;0.62;;;;;3.10;1.00;;;;;;2573106;55;1347;-87
2023/01/30 04:35:58;515627.00;1.72;888.73;0.00;0.00;0.62;;;;;3.20;1.00;;;;;;2573197;55;952;-88
2023/01/30 04:38:27;513521.00;1.71;885.11;0.00;0.00;0.62;;;;;3.10;1.00;;;;;;2570901;55;1094;-85
2023/01/30 04:40:55;436668.00;1.46;752.85;0.00;0.00;0.62;;;;;3.00;1.00;;;;;;2573161;55;929;-86
2023/01/30 04:43:28;526448.00;1.75;907.37;0.00;0.00;0.62;;;;;2.70;1.00;;;;;;2570956;55;1356;-86
2023/01/30 04:45:56;592925.00;1.98;1022.01;0.00;0.00;0.62;;;;;2.60;1.00;;;;;;2570931;55;1933;-87
2023/01/30 04:48:24;724170.00;2.41;1249.18;0.00;0.00;0.62;;;;;2.50;1.00;;;;;;2571027;55;968;-87
2023/01/30 04:50:53;712100.00;2.37;1228.23;0.00;0.00;0.62;;;;;2.50;1.00;;;;;;2573103;55;957;-87
2023/01/30 04:53:20;509742.00;1.70;878.60;0.00;0.00;0.62;;;;;2.40;1.00;;;;;;2573001;55;1916;-85
2023/01/30 04:55:47;582226.00;1.94;1003.54;0.00;0.00;0.62;;;;;2.30;1.00;;;;;;2570981;55;1058;-87
2023/01/30 04:58:14;560630.00;1.87;966.29;0.00;0.00;0.62;;;;;2.60;1.00;;;;;;2571027;55;1043;-87
2023/01/30 05:00:42;515300.00;1.72;888.17;0.00;0.00;0.62;;;;;2.50;1.00;;;;;;2570901;55;1124;-86
2023/01/30 05:03:09;613425.00;2.04;1057.41;0.00;0.00;0.62;;;;;2.60;1.00;;;;;;2573186;55;1327;-86
2023/01/30 05:05:36;461188.00;1.54;795.03;0.00;0.00;0.62;;;;;2.70;1.00;;;;;;2573078;55;1973;-85
2023/01/30 05:08:03;547943.00;1.83;944.41;0.00;0.00;0.62;;;;;2.40;1.00;;;;;;2573233;55;964;-86
2023/01/30 05:10:30;426787.00;1.42;735.86;0.00;0.00;0.62;;;;;2.50;1.00;;;;;;2573107;55;933;-86
2023/01/30 05:13:02;571360.00;1.90;984.79;0.00;0.00;0.62;;;;;2.80;1.00;;;;;;2573053;55;1245;-87
2023/01/30 05:15:30;502787.00;1.68;866.62;0.00;0.00;0.62;;;;;3.00;1.00;;;;;;2570959;55;977;-85
2023/01/30 05:17:58;657262.00;2.19;1133.20;0.00;0.00;0.62;;;;;2.90;1.00;;;;;;2573013;55;2206;-85
2023/01/30 05:20:25;523716.00;1.75;902.67;0.00;0.00;0.62;;;;;3.00;1.00;;;;;;2570831;55;1110;-88
2023/01/30 05:22:52;510856.00;1.70;880.52;0.00;0.00;0.62;;;;;3.00;1.00;;;;;;2572890;55;1260;-87
2023/01/30 05:25:19;390768.00;1.30;673.93;0.00;0.00;0.62;;;;;3.10;1.00;;;;;;2570958;55;1939;-85
2023/01/30 05:27:46;518102.00;1.73;893.00;0.00;0.00;0.62;;;;;3.10;1.00;;;;;;2573015;55;929;-86
2023/01/30 05:30:13;633686.00;2.11;1092.42;0.00;0.00;0.62;;;;;2.90;1.00;;;;;;2570947;55;1125;-86
2023/01/30 05:32:40;448102.00;1.49;772.52;0.00;0.00;0.62;;;;;2.80;1.00;;;;;;2573076;55;983;-86
2023/01/30 05:35:09;474814.00;1.58;818.47;0.00;0.00;0.62;;;;;2.90;1.00;;;;;;2573014;55;1617;-85
2023/01/30 05:37:36;494455.00;1.65;852.28;0.00;0.00;0.62;;;;;2.70;1.00;;;;;;2570866;55;1086;-85
2023/01/30 05:40:06;621924.00;2.07;1072.09;17057.00;0.06;30.17;;;;;2.60;1.00;;;;;;2570906;55;905;-86
2023/01/30 05:42:33;597708.00;1.99;1030.26;0.00;0.00;0.62;;;;;2.70;1.00;;;;;;2570808;55;999;-87
2023/01/30 05:45:00;737816.00;2.46;1272.88;3183.00;0.01;6.14;;;;;2.40;1.00;;;;;;2572988;55;1683;-85
2023/01/30 05:47:27;540832.00;1.80;932.16;0.00;0.00;0.62;;;;;2.30;1.00;;;;;;2573059;55;1915;-87
2023/01/30 05:49:54;399129.00;1.33;688.31;0.00;0.00;0.62;;;;;2.60;1.00;;;;;;2570903;55;1097;-85
2023/01/30 05:52:23;700388.00;2.33;1207.91;0.00;0.00;0.62;;;;;2.70;1.00;;;;;;2573006;55;1676;-85
2023/01/30 05:54:50;585395.00;1.95;1009.01;0.00;0.00;0.62;;;;;2.80;1.00;;;;;;2570888;55;1272;-86
2023/01/30 05:57:16;505902.00;1.69;871.99;0.00;0.00;0.62;;;;;2.70;1.00;;;;;;2573134;55;991;-85
2023/01/30 05:59:43;529801.00;1.77;913.15;0.00;0.00;0.62;;;;;2.70;1.00;;;;;;2570773;55;963;-86
2023/01/30 06:02:10;493700.00;1.65;850.98;0.00;0.00;0.62;;;;;2.60;1.00;;;;;;2570969;55;1057;-86
2023/01/30 06:04:37;598424.00;1.99;1031.50;0.00;0.00;0.62;;;;;2.50;1.00;;;;;;2570774;55;1257;-86
2023/01/30 06:09:39;570274.00;1.90;982.92;0.00;0.00;0.62;;;;;2.80;1.00;;;;;;2576337;56;667;-86
2023/01/30 06:12:07;366704.00;1.22;632.57;0.00;0.00;0.62;;;;;3.00;1.00;;;;;;2578834;55;750;-86
2023/01/30 06:14:34;404078.00;1.35;696.82;0.00;0.00;0.62;;;;;3.30;1.00;;;;;;2576621;55;1274;-84
2023/01/30 06:17:01;305484.00;1.02;527.35;0.00;0.00;0.62;;;;;3.20;1.00;;;;;;2576622;56;1109;-88
2023/01/30 06:19:28;479905.00;1.60;827.23;0.00;0.00;0.62;;;;;3.60;1.00;;;;;;2576725;56;1070;-86
2023/01/30 06:21:55;508543.00;1.70;876.53;0.00;0.00;0.62;;;;;3.70;1.00;;;;;;2578147;55;886;-86
2023/01/30 06:24:22;427872.00;1.43;737.73;0.00;0.00;0.62;;;;;3.50;1.00;;;;;;2578172;55;2106;-85
2023/01/30 06:26:50;372070.00;1.24;641.79;0.00;0.00;0.62;;;;;3.60;1.00;;;;;;2578244;55;1888;-87
2023/01/30 06:29:17;374770.00;1.25;646.44;0.00;0.00;0.62;;;;;3.80;1.00;;;;;;2578122;55;922;-84
2023/01/30 06:31:44;405663.00;1.35;699.54;0.00;0.00;0.62;;;;;4.20;1.00;;;;;;2576038;55;1054;-86
2023/01/30 06:34:11;392631.00;1.31;677.14;0.00;0.00;0.62;;;;;4.30;1.00;;;;;;2578147;55;1651;-87
2023/01/30 06:36:38;405625.00;1.35;699.48;0.00;0.00;0.62;;;;;4.30;1.00;;;;;;2578148;55;888;-86
2023/01/30 06:39:05;867995.00;2.89;1499.98;166200.00;0.55;287.72;;;;;3.90;1.00;;;;;;2576029;55;1023;-85
2023/01/30 06:41:32;598611.00;2.00;1031.82;0.00;0.00;0.62;;;;;4.10;1.00;;;;;;2578124;55;932;-86
2023/01/30 06:44:00;451650.00;1.51;778.62;0.00;0.00;0.62;;;;;4.10;1.00;;;;;;2575928;55;1318;-85
2023/01/30 06:46:27;477548.00;1.59;823.18;0.00;0.00;0.62;;;;;3.90;1.00;;;;;;2575864;55;1949;-86
2023/01/30 06:48:54;607360.00;2.02;1046.93;0.00;0.00;0.62;;;;;3.80;1.00;;;;;;2578091;55;1708;-86
2023/01/30 06:51:21;610600.00;2.04;1052.53;0.00;0.00;0.62;;;;;4.10;1.00;;;;;;2575998;55;1050;-89
2023/01/30 06:53:48;485902.00;1.62;837.56;0.00;0.00;0.62;;;;;4.40;1.00;;;;;;2575849;55;1362;-84
2023/01/30 06:56:15;572362.00;1.91;986.52;0.00;0.00;0.62;;;;;4.40;1.00;;;;;;2578032;55;972;-84
2023/01/30 06:58:42;593807.00;1.98;1023.53;0.00;0.00;0.62;;;;;4.20;1.00;;;;;;2578014;55;1641;-84
2023/01/30 07:01:10;729617.00;2.43;1258.64;0.00;0.00;0.62;;;;;4.00;1.00;;;;;;2575859;55;1080;-84
2023/01/30 07:03:37;574360.00;1.91;989.97;0.00;0.00;0.62;;;;;4.10;1.00;;;;;;2575825;55;1316;-86
2023/01/30 07:06:04;638075.00;2.13;1100.01;0.00;0.00;0.62;;;;;4.30;1.00;;;;;;2575769;55;1957;-86
2023/01/30 07:08:31;669946.00;2.23;1155.16;0.00;0.00;0.62;;;;;4.30;1.00;;;;;;2575759;55;1085;-87
2023/01/30 07:10:58;626363.00;2.09;1079.76;0.00;0.00;0.62;;;;;3.80;1.00;;;;;;2575829;55;1076;-85
2023/01/30 07:13:25;677038.00;2.26;1167.44;0.00;0.00;0.62;;;;;4.00;1.00;;;;;;2578084;55;1338;-87
2023/01/30 07:15:52;742456.00;2.47;1280.94;0.00;0.00;0.62;;;;;4.00;1.00;;;;;;2575880;55;1066;-87
2023/01/30 07:18:20;542664.00;1.81;935.31;0.00;0.00;0.62;;;;;3.90;1.00;;;;;;2575848;55;1126;-85
2023/01/30 07:20:47;469098.00;1.56;808.64;0.00;0.00;0.62;;;;;3.90;1.00;;;;;;2575879;55;1082;-86
2023/01/30 07:23:14;580232.00;1.93;1000.10;0.00;0.00;0.62;;;;;4.30;1.00;;;;;;2577890;55;1511;-88
2023/01/30 07:25:41;490588.00;1.64;845.62;0.00;0.00;0.62;;;;;4.30;1.00;;;;;;2573624;55;3652;-87
2023/01/30 07:28:10;450511.00;1.50;776.66;0.00;0.00;0.62;;;;;4.80;1.00;;;;;;2570901;55;961;-85
2023/01/30 07:30:37;595048.00;1.98;1025.67;23557.00;0.08;41.43;;;;;5.10;1.00;;;;;;2570942;55;1091;-87
2023/01/30 07:33:05;495087.00;1.65;853.37;0.00;0.00;0.62;;;;;5.30;1.00;;;;;;2573069;55;1318;-84
2023/01/30 07:35:35;363730.00;1.21;627.46;0.00;0.00;0.62;;;;;5.30;1.00;;;;;;2570868;55;923;-86
2023/01/30 07:38:03;416512.00;1.39;718.19;0.00;0.00;0.62;;;;;5.70;1.00;;;;;;2570969;55;1114;-85
2023/01/30 07:40:30;541117.00;1.80;932.65;0.00;0.00;0.62;;;;;5.70;1.00;;;;;;2570971;55;1145;-86
2023/01/30 07:42:59;384000.00;1.28;662.30;0.00;0.00;0.62;;;;;5.30;1.00;;;;;;2570915;55;1334;-87
2023/01/30 07:45:28;448618.00;1.50;773.41;0.00;0.00;0.62;;;;;5.40;1.00;;;;;;2570594;55;1116;-86
2023/01/30 07:47:55;521626.00;1.74;899.07;0.00;0.00;0.62;;;;;5.70;1.00;;;;;;2572846;55;1915;-86
2023/01/30 07:50:22;589189.00;1.96;1015.56;0.00;0.00;0.62;;;;;5.90;1.00;;;;;;2572992;55;1640;-84
2023/01/30 07:52:51;567053.00;1.89;977.36;0.00;0.00;0.62;;;;;6.30;1.00;;;;;;2572936;55;1698;-85
2023/01/30 07:55:18;517475.00;1.72;891.92;0.00;0.00;0.62;;;;;6.10;1.00;;;;;;2572883;55;1411;-86
2023/01/30 07:57:45;566364.00;1.89;976.18;0.00;0.00;0.62;;;;;6.10;1.00;;;;;;2570465;41;3469;-86
2023/01/30 08:00:13;400696.00;1.34;691.00;0.00;0.00;0.62;;;;;6.10;1.00;;;;;;2572992;55;1402;-86
2023/01/30 08:02:40;530818.00;1.77;914.90;0.00;0.00;0.62;;;;;6.30;1.00;;;;;;2573137;55;983;-86
2023/01/30 08:05:08;789828.00;2.63;1363.39;27136.00;0.09;47.63;;;;;6.40;1.00;;;;;;2570761;55;1238;-85
2023/01/30 08:07:35;397540.00;1.33;685.58;0.00;0.00;0.62;;;;;6.30;1.00;;;;;;2572919;55;1964;-86
2023/01/30 08:10:04;564802.00;1.88;973.48;0.00;0.00;0.62;;;;;6.00;1.00;;;;;;2572954;55;1541;-87
2023/01/30 08:12:31;474429.00;1.58;817.81;0.00;0.00;0.62;;;;;5.90;1.00;;;;;;2573009;55;1582;-85
2023/01/30 08:14:59;438539.00;1.46;756.07;0.00;0.00;0.62;;;;;6.00;1.00;;;;;;2572923;55;1340;-86
2023/01/30 08:17:26;370276.00;1.23;638.71;0.00;0.00;0.62;;;;;6.00;1.00;;;;;;2573235;55;1505;-88
2023/01/30 08:19:53;448001.00;1.49;772.34;0.00;0.00;0.62;;;;;6.10;1.00;;;;;;2573253;55;1645;-86
2023/01/30 08:22:20;464417.00;1.55;800.58;0.00;0.00;0.62;;;;;5.90;1.00;;;;;;2573137;55;1669;-88
2023/01/30 08:29:57;408646.00;1.36;704.67;0.00;0.00;0.62;;;;;5.90;1.00;;;;;;2565763;56;898;-87
2023/01/30 08:32:24;528501.00;1.76;910.91;0.00;0.00;0.62;;;;;5.80;1.00;;;;;;2567912;55;1667;-89
2023/01/30 08:42:30;704196.00;2.35;1214.52;0.00;0.00;0.62;;;;;5.50;1.00;;;;;;2570681;56;3509;-87
2023/01/30 08:49:57;629935.00;2.10;1085.94;38747.00;0.13;67.72;;;;;6.20;1.00;;;;;;2570419;40;3346;-86
2023/01/30 08:52:25;472113.00;1.57;813.83;0.00;0.00;0.62;;;;;6.50;1.00;;;;;;2572927;55;1658;-86
2023/01/30 08:54:52;607035.00;2.02;1046.37;35351.00;0.12;61.84;;;;;6.70;1.00;;;;;;2572988;55;1266;-87
2023/01/30 08:57:19;421596.00;1.41;726.93;0.00;0.00;0.62;;;;;6.70;1.00;;;;;;2570864;55;1035;-87
2023/01/30 08:59:46;257040.00;0.86;444.06;0.00;0.00;0.62;;;;;6.80;1.00;;;;;;2570884;55;1045;-89
2023/01/30 09:02:14;556046.00;1.85;958.38;0.00;0.00;0.62;;;;;7.10;1.00;;;;;;2570677;41;3487;-88
2023/01/30 09:17:23;927663.00;3.09;1604.76;103094.00;0.34;178.91;;;;;6.20;1.00;;;;;;2567569;56;3443;-86
2023/01/30 09:40:17;997883.00;3.33;1728.72;0.00;0.00;0.62;;;;;6.10;1.00;;;;;;2564257;55;3497;-86
2023/01/30 09:47:57;433079.00;1.44;746.68;0.00;0.00;0.62;;;;;6.30;1.00;;;;;;2564215;40;3362;-87
2023/01/30 09:50:51;913466.00;3.04;1579.78;0.00;0.00;0.62;;;;;6.30;1.00;;;;;;2562726;41;3488;-88
2023/01/30 10:01:15;693976.00;2.31;1196.79;0.00;0.00;0.62;;;;;6.80;1.00;;;;;;2565817;40;3495;-88
2023/01/30 10:06:15;736351.00;2.45;1270.33;0.00;0.00;0.62;;;;;6.50;1.00;;;;;;2569747;41;3362;-88
2023/01/30 10:16:28;1110493.00;3.70;1929.20;0.00;0.00;0.62;;;;;7.60;1.00;;;;;;2569802;55;3561;-88
2023/01/30 10:29:18;442024.00;1.47;762.06;101792.00;0.34;176.66;;;;;6.70;1.00;;;;;;2571706;56;677;-89
2023/01/30 10:39:31;570666.00;1.90;983.60;103095.00;0.34;178.91;;;;;7.50;1.00;;;;;;2559117;40;3514;-86
2023/01/30 10:44:29;344720.00;1.15;594.79;98553.00;0.33;171.07;;;;;7.60;1.00;;;;;;2566500;56;1270;-87
2023/01/30 10:47:24;222025.00;0.74;383.83;0.00;0.00;0.62;;;;;7.70;1.00;;;;;;2568632;56;1904;-88
2023/01/30 10:52:39;746578.00;2.49;1288.11;105609.00;0.35;183.25;;;;;7.70;1.00;;;;;;2571019;41;2846;-87
2023/01/30 10:57:57;598520.00;2.00;1031.66;93994.00;0.31;163.20;;;;;7.70;1.00;;;;;;2566308;56;1395;-89
2023/01/30 11:13:17;739526.00;2.47;1275.85;95210.00;0.32;165.30;;;;;8.00;1.00;;;;;;2571817;56;1243;-87
2023/01/30 11:18:16;304024.00;1.01;524.84;103707.00;0.35;179.97;;;;;8.20;1.00;;;;;;2577079;56;655;-87
2023/01/30 11:20:46;202991.00;0.68;351.07;0.00;0.00;0.62;;;;;8.30;1.00;;;;;;2579155;55;1654;-87
2023/01/30 11:23:26;364517.00;1.22;628.81;0.00;0.00;0.62;;;;;8.40;1.00;;;;;;2575906;55;1334;-89
2023/01/30 11:28:26;474445.00;1.58;817.84;96148.00;0.32;166.92;;;;;8.30;1.00;;;;;;2565355;40;3266;-87
2023/01/30 11:38:40;501867.00;1.67;865.04;81646.00;0.27;141.88;;;;;8.30;1.00;;;;;;2571694;56;1311;-89
2023/01/30 11:41:23;695273.00;2.32;1199.04;102843.00;0.34;178.48;;;;;8.30;1.00;;;;;;2571773;56;1417;-88
2023/01/30 11:46:22;628733.00;2.10;1083.86;101065.00;0.34;175.41;;;;;8.20;1.00;;;;;;2571859;56;734;-88
2023/01/30 11:48:54;708008.00;2.36;1221.13;99445.00;0.33;172.61;;;;;8.20;1.00;;;;;;2560512;40;3315;-86
2023/01/30 11:59:22;475583.00;1.59;819.80;0.00;0.00;0.62;;;;;8.10;1.00;;;;;;2568290;41;1858;-88
2023/01/30 12:04:28;672290.00;2.24;1159.22;0.00;0.00;0.62;;;;;8.40;1.00;;;;;;2568746;41;1923;-87
2023/01/30 12:14:42;590824.00;1.97;1018.38;0.00;0.00;0.62;;;;;8.60;1.00;;;;;;2565266;41;2865;-90
2023/01/30 12:20:09;766015.00;2.55;1321.92;0.00;0.00;0.62;;;;;8.80;1.00;;;;;;2569077;41;3493;-88
2023/01/30 12:25:19;346029.00;1.15;597.04;0.00;0.00;0.62;;;;;8.50;1.00;;;;;;2561663;40;1967;-89
2023/01/30 12:35:41;521555.00;1.74;898.94;0.00;0.00;0.62;;;;;8.10;1.00;;;;;;2569555;40;3457;-88
2023/01/30 12:43:44;380489.00;1.27;656.27;0.00;0.00;0.62;;;;;8.20;1.00;;;;;;2569705;41;1711;-87
2023/01/30 12:49:03;509952.00;1.70;878.96;0.00;0.00;0.62;;;;;7.90;1.00;;;;;;2565620;56;1925;-87
2023/01/30 12:56:54;729028.00;2.43;1257.61;0.00;0.00;0.62;;;;;8.00;1.00;;;;;;2570027;56;2816;-89
2023/01/30 13:04:40;567926.00;1.89;978.87;0.00;0.00;0.62;;;;;8.20;1.00;;;;;;2565503;40;3513;-86
2023/01/30 13:12:23;765075.00;2.55;1320.28;108131.00;0.36;187.60;;;;;8.10;1.00;;;;;;2576939;55;691;-88
2023/01/30 13:15:03;915686.00;3.05;1583.69;0.00;0.00;0.62;;;;;8.00;1.00;;;;;;2561591;40;3759;-86
2023/01/30 13:20:15;671283.00;2.24;1157.47;0.00;0.00;0.62;;;;;8.10;1.00;;;;;;2568073;55;3338;-88
2023/01/30 13:28:01;728027.00;2.43;1255.88;102514.00;0.34;177.91;;;;;8.20;1.00;;;;;;2569583;56;3524;-87
2023/01/30 13:30:31;623114.00;2.08;1074.15;106351.00;0.35;184.53;;;;;8.30;1.00;;;;;;2570699;55;3659;-88
2023/01/30 13:33:04;781440.00;2.60;1348.77;101495.00;0.34;176.15;;;;;8.30;1.00;;;;;;2568524;41;3506;-87
2023/01/30 13:38:09;809087.00;2.70;1396.98;96655.00;0.32;167.80;;;;;7.70;1.00;;;;;;2565878;40;3322;-86
2023/01/30 13:43:18;342621.00;1.14;591.18;107988.00;0.36;187.36;;;;;7.20;1.00;;;;;;2566611;56;1209;-86
2023/01/30 14:01:03;260215.00;0.87;449.52;0.00;0.00;0.62;;;;;7.40;1.00;;;;;;2576843;56;869;-87